TimeEST,TemperatureF,Dew PointF,Humidity,Sea Level PressureIn,VisibilityMPH,Wind Direction,Wind SpeedMPH,Gust SpeedMPH,PrecipitationIn,Events,Conditions,WindDirDegrees,DateUTC
12:14 AM,24.1,22.6,94,29.90,10.0,SSW,4.6,-,N/A,,Clear,210,2012-12-23 05:14:00
12:35 AM,24.4,22.3,91,29.89,10.0,SSW,5.8,-,N/A,,Clear,210,2012-12-23 05:35:00
12:54 AM,24.4,22.1,91,29.89,10.0,SSW,5.8,-,N/A,,Clear,210,2012-12-23 05:54:00
1:14 AM,24.4,22.1,91,29.89,10.0,SSW,4.6,-,N/A,,Clear,200,2012-12-23 06:14:00
1:35 AM,24.1,22.1,92,29.88,10.0,SSW,5.8,-,N/A,,Clear,210,2012-12-23 06:35:00
1:54 AM,23.9,22.1,93,29.87,10.0,SSW,4.6,-,N/A,,Clear,210,2012-12-23 06:54:00
2:14 AM,23.4,21.6,93,29.87,10.0,SSW,3.5,-,N/A,,Clear,210,2012-12-23 07:14:00
2:35 AM,22.3,20.8,94,29.87,7.0,SSW,3.5,-,N/A,,Scattered Clouds,210,2012-12-23 07:35:00
2:54 AM,21.4,19.9,94,29.87,7.0,Calm,Calm,-,N/A,,Scattered Clouds,0,2012-12-23 07:54:00
3:14 AM,20.7,18.9,93,29.87,10.0,Calm,Calm,-,N/A,,Scattered Clouds,0,2012-12-23 08:14:00
3:34 AM,19.0,17.1,92,29.86,10.0,Calm,Calm,-,N/A,,Clear,0,2012-12-23 08:34:00
3:54 AM,18.9,17.2,93,29.86,7.0,Calm,Calm,-,N/A,,Clear,0,2012-12-23 08:54:00
4:15 AM,18.3,16.5,93,29.85,7.0,Calm,Calm,-,N/A,,Clear,0,2012-12-23 09:15:00
4:34 AM,16.9,15.1,93,29.84,7.0,Calm,Calm,-,N/A,,Clear,0,2012-12-23 09:34:00
4:54 AM,17.1,15.4,93,29.84,7.0,Calm,Calm,-,N/A,,Clear,0,2012-12-23 09:54:00
5:15 AM,15.8,13.5,90,29.84,10.0,Calm,Calm,-,N/A,,Clear,0,2012-12-23 10:15:00
5:34 AM,16.5,14.5,92,29.85,10.0,NW,3.5,-,N/A,,Clear,310,2012-12-23 10:34:00
5:54 AM,17.4,15.8,93,29.86,10.0,Calm,Calm,-,N/A,,Clear,0,2012-12-23 10:54:00
6:15 AM,16.7,14.7,92,29.87,10.0,Calm,Calm,-,N/A,,Clear,0,2012-12-23 11:15:00
6:34 AM,15.6,13.3,90,29.87,10.0,Calm,Calm,-,N/A,,Clear,0,2012-12-23 11:34:00
6:54 AM,15.8,13.8,92,29.87,10.0,Calm,Calm,-,N/A,,Mostly Cloudy,0,2012-12-23 11:54:00
7:15 AM,16.7,14.7,92,29.87,10.0,Calm,Calm,-,N/A,,Overcast,0,2012-12-23 12:15:00
7:34 AM,18.0,16.2,93,29.87,10.0,Calm,Calm,-,N/A,,Overcast,0,2012-12-23 12:34:00
7:54 AM,19.4,17.6,93,29.88,10.0,Calm,Calm,-,N/A,,Overcast,0,2012-12-23 12:54:00
8:15 AM,20.8,19.0,93,29.87,7.0,Calm,Calm,-,N/A,,Overcast,0,2012-12-23 13:15:00
8:34 AM,21.9,19.8,91,29.89,10.0,Calm,Calm,-,N/A,,Overcast,0,2012-12-23 13:34:00
8:54 AM,22.8,21.0,93,29.89,10.0,Calm,Calm,-,N/A,,Overcast,0,2012-12-23 13:54:00
9:14 AM,23.4,21.2,91,29.90,10.0,Calm,Calm,-,N/A,,Overcast,0,2012-12-23 14:14:00
9:34 AM,26.2,24.3,92,29.91,10.0,NNW,4.6,-,N/A,,Overcast,330,2012-12-23 14:34:00
9:55 AM,28.9,25.3,86,29.91,10.0,North,4.6,-,N/A,,Overcast,360,2012-12-23 14:55:00
10:14 AM,29.3,25.2,85,29.92,10.0,NNW,4.6,-,N/A,,Overcast,330,2012-12-23 15:14:00
10:34 AM,29.3,23.0,77,29.93,10.0,NNW,6.9,-,N/A,,Overcast,340,2012-12-23 15:34:00
10:55 AM,30.0,21.4,70,29.93,10.0,North,13.8,17.3,N/A,,Overcast,350,2012-12-23 15:55:00
11:14 AM,30.0,21.4,70,29.94,10.0,NW,11.5,-,N/A,,Overcast,320,2012-12-23 16:14:00
11:34 AM,29.8,21.4,71,29.94,10.0,NNW,11.5,-,N/A,,Overcast,330,2012-12-23 16:34:00
12:14 PM,29.7,20.8,70,29.94,10.0,North,10.4,-,N/A,,Overcast,350,2012-12-23 17:14:00
12:34 PM,29.7,20.7,69,29.94,10.0,NW,11.5,-,N/A,,Overcast,320,2012-12-23 17:34:00
1:14 PM,29.7,18.7,64,29.93,10.0,North,10.4,-,N/A,,Overcast,350,2012-12-23 18:14:00
1:34 PM,29.8,19.8,66,29.93,10.0,North,8.1,-,N/A,,Overcast,360,2012-12-23 18:34:00
1:55 PM,30.0,19.4,65,29.93,10.0,North,10.4,-,N/A,,Overcast,360,2012-12-23 18:55:00
2:14 PM,30.0,19.9,66,29.93,10.0,North,6.9,-,N/A,,Overcast,360,2012-12-23 19:14:00
2:34 PM,29.8,19.6,66,29.93,10.0,NW,9.2,-,N/A,,Overcast,320,2012-12-23 19:34:00
2:55 PM,28.9,17.8,63,29.94,10.0,NNW,6.9,-,N/A,,Overcast,330,2012-12-23 19:55:00
3:14 PM,29.3,18.7,65,29.94,10.0,North,6.9,-,N/A,,Overcast,350,2012-12-23 20:14:00
3:34 PM,28.4,17.4,63,29.94,10.0,North,6.9,-,N/A,,Overcast,360,2012-12-23 20:34:00
3:54 PM,28.4,18.0,65,29.95,10.0,North,4.6,-,N/A,,Overcast,360,2012-12-23 20:54:00
4:14 PM,28.4,17.8,64,29.95,10.0,North,9.2,-,N/A,,Overcast,360,2012-12-23 21:14:00
4:35 PM,28.0,17.6,65,29.96,10.0,North,10.4,-,N/A,,Overcast,350,2012-12-23 21:35:00
4:54 PM,27.5,17.1,65,29.96,10.0,NW,9.2,-,N/A,,Overcast,310,2012-12-23 21:54:00
5:14 PM,27.1,17.2,66,29.97,10.0,WNW,6.9,-,N/A,,Overcast,290,2012-12-23 22:14:00
5:35 PM,26.8,16.9,66,29.98,10.0,NW,6.9,-,N/A,,Overcast,310,2012-12-23 22:35:00
5:54 PM,26.6,17.1,67,29.98,10.0,NW,8.1,-,N/A,,Overcast,310,2012-12-23 22:54:00
6:14 PM,26.2,16.7,67,29.99,10.0,WNW,9.2,-,N/A,,Overcast,300,2012-12-23 23:14:00
6:35 PM,26.1,16.5,67,30.00,10.0,NW,6.9,-,N/A,,Overcast,310,2012-12-23 23:35:00
6:54 PM,26.1,16.9,68,30.00,10.0,NW,8.1,-,N/A,,Overcast,310,2012-12-23 23:54:00
7:14 PM,25.7,16.7,69,30.01,10.0,NNW,8.1,-,N/A,,Overcast,340,2012-12-24 00:14:00
7:35 PM,25.7,16.5,68,30.01,10.0,North,8.1,-,N/A,,Overcast,360,2012-12-24 00:35:00
7:54 PM,25.2,16.2,69,30.02,10.0,NW,5.8,-,N/A,,Overcast,320,2012-12-24 00:54:00
8:14 PM,25.2,16.2,69,30.02,10.0,NNW,3.5,-,N/A,,Overcast,330,2012-12-24 01:14:00
8:35 PM,25.2,15.6,67,30.02,10.0,North,6.9,-,N/A,,Overcast,360,2012-12-24 01:35:00
8:54 PM,24.8,15.8,69,30.02,10.0,NNE,5.8,-,N/A,,Overcast,30,2012-12-24 01:54:00
9:14 PM,24.4,15.6,69,30.02,10.0,North,6.9,-,N/A,,Overcast,10,2012-12-24 02:14:00
9:54 PM,23.9,15.1,69,30.01,10.0,Calm,Calm,-,N/A,,Overcast,0,2012-12-24 02:54:00
10:14 PM,23.9,14.7,68,30.01,10.0,NW,3.5,-,N/A,,Overcast,320,2012-12-24 03:14:00
10:35 PM,23.7,15.3,70,30.00,10.0,NNE,3.5,-,N/A,,Overcast,20,2012-12-24 03:35:00
10:54 PM,23.7,14.9,69,30.00,10.0,Calm,Calm,-,N/A,,Overcast,0,2012-12-24 03:54:00
11:14 PM,23.9,15.4,70,30.00,10.0,Calm,Calm,-,N/A,,Overcast,0,2012-12-24 04:14:00
11:34 PM,23.9,15.3,70,30.00,10.0,NNE,3.5,-,N/A,,Overcast,30,2012-12-24 04:34:00
11:54 PM,23.5,15.3,71,29.99,10.0,NE,5.8,-,N/A,,Overcast,50,2012-12-24 04:54:00